sensor_id;sensor_type;location;lat;lon;timestamp;P1;durP1;ratioP1;P2;durP2;ratioP2
15633;SDS011;14654;48.898;8.308;2023-09-19T00:02:16;2.53;;;1.40;;
15633;SDS011;14654;48.898;8.308;2023-09-19T00:04:42;1.50;;;0.93;;
15633;SDS011;14654;48.898;8.308;2023-09-19T00:07:08;1.40;;;0.90;;
15633;SDS011;14654;48.898;8.308;2023-09-19T00:09:34;1.27;;;1.10;;
15633;SDS011;14654;48.898;8.308;2023-09-19T00:12:03;1.97;;;0.90;;
15633;SDS011;14654;48.898;8.308;2023-09-19T00:14:32;1.47;;;0.97;;
15633;SDS011;14654;48.898;8.308;2023-09-19T00:17:02;1.77;;;1.20;;
15633;SDS011;14654;48.898;8.308;2023-09-19T00:19:33;1.33;;;1.20;;
15633;SDS011;14654;48.898;8.308;2023-09-19T00:22:02;3.03;;;1.00;;
15633;SDS011;14654;48.898;8.308;2023-09-19T00:24:29;1.60;;;0.90;;
15633;SDS011;14654;48.898;8.308;2023-09-19T00:26:54;2.70;;;1.30;;
15633;SDS011;14654;48.898;8.308;2023-09-19T00:29:20;1.33;;;1.20;;
15633;SDS011;14654;48.898;8.308;2023-09-19T00:31:46;2.03;;;1.30;;
15633;SDS011;14654;48.898;8.308;2023-09-19T00:34:11;2.33;;;1.30;;
15633;SDS011;14654;48.898;8.308;2023-09-19T00:36:37;1.47;;;1.00;;
15633;SDS011;14654;48.898;8.308;2023-09-19T00:39:06;1.23;;;0.90;;
15633;SDS011;14654;48.898;8.308;2023-09-19T00:41:33;1.27;;;1.00;;
15633;SDS011;14654;48.898;8.308;2023-09-19T00:44:00;1.90;;;1.00;;
15633;SDS011;14654;48.898;8.308;2023-09-19T00:46:27;1.13;;;0.80;;
15633;SDS011;14654;48.898;8.308;2023-09-19T00:48:52;1.80;;;1.10;;
15633;SDS011;14654;48.898;8.308;2023-09-19T00:51:17;1.03;;;0.90;;
15633;SDS011;14654;48.898;8.308;2023-09-19T00:53:46;1.17;;;0.90;;
15633;SDS011;14654;48.898;8.308;2023-09-19T00:56:12;2.63;;;1.20;;
15633;SDS011;14654;48.898;8.308;2023-09-19T00:58:38;1.50;;;0.90;;
15633;SDS011;14654;48.898;8.308;2023-09-19T01:01:03;0.90;;;0.80;;
15633;SDS011;14654;48.898;8.308;2023-09-19T01:03:32;3.83;;;1.20;;
15633;SDS011;14654;48.898;8.308;2023-09-19T01:05:59;1.50;;;0.93;;
15633;SDS011;14654;48.898;8.308;2023-09-19T01:08:25;0.83;;;0.80;;
15633;SDS011;14654;48.898;8.308;2023-09-19T01:10:55;1.07;;;0.93;;
15633;SDS011;14654;48.898;8.308;2023-09-19T01:16:29;1.43;;;0.90;;
15633;SDS011;14654;48.898;8.308;2023-09-19T01:19:21;1.63;;;1.00;;
15633;SDS011;14654;48.898;8.308;2023-09-19T01:22:24;1.57;;;0.80;;
15633;SDS011;14654;48.898;8.308;2023-09-19T01:30:45;0.80;;;0.80;;
15633;SDS011;14654;48.898;8.308;2023-09-19T01:33:12;1.43;;;0.77;;
15633;SDS011;14654;48.898;8.308;2023-09-19T01:35:38;1.47;;;0.83;;
15633;SDS011;14654;48.898;8.308;2023-09-19T01:38:04;1.50;;;0.90;;
15633;SDS011;14654;48.898;8.308;2023-09-19T01:40:32;1.50;;;0.70;;
15633;SDS011;14654;48.898;8.308;2023-09-19T01:43:09;3.27;;;1.17;;
15633;SDS011;14654;48.898;8.308;2023-09-19T01:48:25;0.80;;;0.80;;
15633;SDS011;14654;48.898;8.308;2023-09-19T01:51:02;1.47;;;1.13;;
15633;SDS011;14654;48.898;8.308;2023-09-19T01:54:16;1.13;;;0.70;;
15633;SDS011;14654;48.898;8.308;2023-09-19T01:56:30;0.80;;;0.80;;
15633;SDS011;14654;48.898;8.308;2023-09-19T01:59:06;1.13;;;0.80;;
15633;SDS011;14654;48.898;8.308;2023-09-19T02:01:35;1.73;;;0.90;;
15633;SDS011;14654;48.898;8.308;2023-09-19T02:04:03;1.30;;;1.07;;
15633;SDS011;14654;48.898;8.308;2023-09-19T02:06:29;2.10;;;1.00;;
15633;SDS011;14654;48.898;8.308;2023-09-19T02:08:54;2.43;;;1.03;;
15633;SDS011;14654;48.898;8.308;2023-09-19T02:11:20;1.90;;;0.90;;
15633;SDS011;14654;48.898;8.308;2023-09-19T02:13:46;1.57;;;0.90;;
15633;SDS011;14654;48.898;8.308;2023-09-19T02:16:11;1.00;;;0.80;;
15633;SDS011;14654;48.898;8.308;2023-09-19T02:18:37;1.03;;;0.93;;
15633;SDS011;14654;48.898;8.308;2023-09-19T02:21:04;1.00;;;0.80;;
15633;SDS011;14654;48.898;8.308;2023-09-19T02:23:31;1.90;;;1.10;;
15633;SDS011;14654;48.898;8.308;2023-09-19T02:25:58;1.67;;;1.00;;
15633;SDS011;14654;48.898;8.308;2023-09-19T02:28:25;1.80;;;1.10;;
15633;SDS011;14654;48.898;8.308;2023-09-19T02:30:55;1.93;;;1.30;;
15633;SDS011;14654;48.898;8.308;2023-09-19T02:33:20;1.33;;;0.83;;
15633;SDS011;14654;48.898;8.308;2023-09-19T02:35:46;4.13;;;1.10;;
15633;SDS011;14654;48.898;8.308;2023-09-19T02:38:11;0.80;;;0.80;;
15633;SDS011;14654;48.898;8.308;2023-09-19T02:40:37;1.40;;;0.87;;
15633;SDS011;14654;48.898;8.308;2023-09-19T02:43:03;2.07;;;1.07;;
15633;SDS011;14654;48.898;8.308;2023-09-19T02:45:29;0.70;;;0.70;;
15633;SDS011;14654;48.898;8.308;2023-09-19T02:47:55;1.03;;;0.80;;
15633;SDS011;14654;48.898;8.308;2023-09-19T02:50:21;1.30;;;0.90;;
15633;SDS011;14654;48.898;8.308;2023-09-19T02:52:46;1.90;;;1.07;;
15633;SDS011;14654;48.898;8.308;2023-09-19T02:55:13;1.20;;;1.10;;
15633;SDS011;14654;48.898;8.308;2023-09-19T02:57:45;1.90;;;1.00;;
15633;SDS011;14654;48.898;8.308;2023-09-19T03:00:15;2.93;;;0.93;;
15633;SDS011;14654;48.898;8.308;2023-09-19T03:02:42;1.93;;;1.00;;
15633;SDS011;14654;48.898;8.308;2023-09-19T03:05:08;1.83;;;0.90;;
15633;SDS011;14654;48.898;8.308;2023-09-19T03:07:36;1.67;;;1.10;;
15633;SDS011;14654;48.898;8.308;2023-09-19T03:10:03;2.17;;;1.00;;
15633;SDS011;14654;48.898;8.308;2023-09-19T03:12:30;1.40;;;1.10;;
15633;SDS011;14654;48.898;8.308;2023-09-19T03:14:56;2.00;;;1.20;;
15633;SDS011;14654;48.898;8.308;2023-09-19T03:17:22;2.27;;;1.40;;
15633;SDS011;14654;48.898;8.308;2023-09-19T03:19:47;1.47;;;1.37;;
15633;SDS011;14654;48.898;8.308;2023-09-19T03:22:13;2.80;;;1.20;;
15633;SDS011;14654;48.898;8.308;2023-09-19T03:24:39;1.87;;;1.10;;
15633;SDS011;14654;48.898;8.308;2023-09-19T03:27:04;1.90;;;1.10;;
15633;SDS011;14654;48.898;8.308;2023-09-19T03:29:30;3.07;;;1.20;;
15633;SDS011;14654;48.898;8.308;2023-09-19T03:31:55;1.80;;;1.47;;
15633;SDS011;14654;48.898;8.308;2023-09-19T03:34:20;3.03;;;1.23;;
15633;SDS011;14654;48.898;8.308;2023-09-19T03:36:46;2.97;;;1.30;;
15633;SDS011;14654;48.898;8.308;2023-09-19T03:39:12;3.57;;;1.50;;
15633;SDS011;14654;48.898;8.308;2023-09-19T03:41:39;2.87;;;1.30;;
15633;SDS011;14654;48.898;8.308;2023-09-19T03:44:05;1.87;;;1.37;;
15633;SDS011;14654;48.898;8.308;2023-09-19T03:46:30;2.77;;;1.40;;
15633;SDS011;14654;48.898;8.308;2023-09-19T03:48:57;1.53;;;1.10;;
15633;SDS011;14654;48.898;8.308;2023-09-19T03:51:22;2.03;;;1.40;;
15633;SDS011;14654;48.898;8.308;2023-09-19T03:53:47;2.33;;;1.50;;
15633;SDS011;14654;48.898;8.308;2023-09-19T03:56:14;1.87;;;1.43;;
15633;SDS011;14654;48.898;8.308;2023-09-19T03:58:39;2.27;;;1.33;;
15633;SDS011;14654;48.898;8.308;2023-09-19T04:01:05;2.40;;;1.70;;
15633;SDS011;14654;48.898;8.308;2023-09-19T04:03:32;2.13;;;1.40;;
15633;SDS011;14654;48.898;8.308;2023-09-19T04:06:14;3.27;;;1.47;;
15633;SDS011;14654;48.898;8.308;2023-09-19T04:08:40;2.87;;;1.87;;
15633;SDS011;14654;48.898;8.308;2023-09-19T04:11:06;2.07;;;1.57;;
15633;SDS011;14654;48.898;8.308;2023-09-19T04:13:31;1.97;;;1.70;;
15633;SDS011;14654;48.898;8.308;2023-09-19T04:15:57;2.53;;;1.30;;
15633;SDS011;14654;48.898;8.308;2023-09-19T04:18:22;2.83;;;1.70;;
15633;SDS011;14654;48.898;8.308;2023-09-19T04:20:52;2.83;;;1.43;;
15633;SDS011;14654;48.898;8.308;2023-09-19T04:23:17;1.53;;;1.37;;
15633;SDS011;14654;48.898;8.308;2023-09-19T04:25:46;4.13;;;1.50;;
15633;SDS011;14654;48.898;8.308;2023-09-19T04:28:11;2.90;;;1.67;;
15633;SDS011;14654;48.898;8.308;2023-09-19T04:30:37;4.23;;;1.90;;
15633;SDS011;14654;48.898;8.308;2023-09-19T04:33:05;2.57;;;1.63;;
15633;SDS011;14654;48.898;8.308;2023-09-19T04:35:31;3.17;;;1.60;;
15633;SDS011;14654;48.898;8.308;2023-09-19T04:37:57;2.20;;;2.00;;
15633;SDS011;14654;48.898;8.308;2023-09-19T04:40:22;2.60;;;1.60;;
15633;SDS011;14654;48.898;8.308;2023-09-19T04:42:58;2.07;;;1.60;;
15633;SDS011;14654;48.898;8.308;2023-09-19T04:45:25;2.07;;;1.80;;
15633;SDS011;14654;48.898;8.308;2023-09-19T04:47:51;5.03;;;2.23;;
15633;SDS011;14654;48.898;8.308;2023-09-19T04:50:16;3.03;;;1.77;;
15633;SDS011;14654;48.898;8.308;2023-09-19T04:52:42;2.37;;;1.80;;
15633;SDS011;14654;48.898;8.308;2023-09-19T04:55:12;3.90;;;1.90;;
15633;SDS011;14654;48.898;8.308;2023-09-19T04:57:45;2.50;;;1.70;;
15633;SDS011;14654;48.898;8.308;2023-09-19T05:00:17;2.43;;;1.93;;
15633;SDS011;14654;48.898;8.308;2023-09-19T05:02:44;2.93;;;1.63;;
15633;SDS011;14654;48.898;8.308;2023-09-19T05:05:14;2.47;;;1.90;;
15633;SDS011;14654;48.898;8.308;2023-09-19T05:07:42;3.03;;;2.13;;
15633;SDS011;14654;48.898;8.308;2023-09-19T05:10:07;3.07;;;2.00;;
15633;SDS011;14654;48.898;8.308;2023-09-19T05:12:36;4.17;;;2.20;;
15633;SDS011;14654;48.898;8.308;2023-09-19T05:15:05;3.17;;;2.03;;
15633;SDS011;14654;48.898;8.308;2023-09-19T05:17:34;2.83;;;1.60;;
15633;SDS011;14654;48.898;8.308;2023-09-19T05:20:00;3.37;;;2.13;;
15633;SDS011;14654;48.898;8.308;2023-09-19T05:22:40;3.00;;;1.80;;
15633;SDS011;14654;48.898;8.308;2023-09-19T05:25:06;3.53;;;1.90;;
15633;SDS011;14654;48.898;8.308;2023-09-19T05:27:31;3.07;;;2.10;;
15633;SDS011;14654;48.898;8.308;2023-09-19T05:29:58;2.53;;;1.97;;
15633;SDS011;14654;48.898;8.308;2023-09-19T05:32:24;3.00;;;2.17;;
15633;SDS011;14654;48.898;8.308;2023-09-19T05:34:49;2.67;;;2.00;;
15633;SDS011;14654;48.898;8.308;2023-09-19T05:37:18;3.03;;;1.87;;
15633;SDS011;14654;48.898;8.308;2023-09-19T05:39:43;1.73;;;1.63;;
15633;SDS011;14654;48.898;8.308;2023-09-19T05:42:08;2.93;;;1.80;;
15633;SDS011;14654;48.898;8.308;2023-09-19T05:44:34;3.13;;;2.20;;
15633;SDS011;14654;48.898;8.308;2023-09-19T05:47:01;3.00;;;1.90;;
15633;SDS011;14654;48.898;8.308;2023-09-19T05:49:27;2.07;;;1.80;;
15633;SDS011;14654;48.898;8.308;2023-09-19T05:51:53;3.37;;;2.53;;
15633;SDS011;14654;48.898;8.308;2023-09-19T05:54:20;2.60;;;1.77;;
15633;SDS011;14654;48.898;8.308;2023-09-19T05:56:45;2.47;;;2.00;;
15633;SDS011;14654;48.898;8.308;2023-09-19T05:59:11;3.10;;;2.00;;
15633;SDS011;14654;48.898;8.308;2023-09-19T06:01:38;2.80;;;2.10;;
15633;SDS011;14654;48.898;8.308;2023-09-19T06:04:04;3.10;;;1.87;;
15633;SDS011;14654;48.898;8.308;2023-09-19T06:06:29;3.10;;;1.90;;
15633;SDS011;14654;48.898;8.308;2023-09-19T06:08:55;2.17;;;1.87;;
15633;SDS011;14654;48.898;8.308;2023-09-19T06:11:21;3.00;;;2.00;;
15633;SDS011;14654;48.898;8.308;2023-09-19T06:13:48;3.77;;;2.10;;
15633;SDS011;14654;48.898;8.308;2023-09-19T06:16:13;4.37;;;2.43;;
15633;SDS011;14654;48.898;8.308;2023-09-19T06:18:39;4.23;;;2.40;;
15633;SDS011;14654;48.898;8.308;2023-09-19T06:21:04;3.10;;;2.07;;
15633;SDS011;14654;48.898;8.308;2023-09-19T06:23:32;2.97;;;2.50;;
15633;SDS011;14654;48.898;8.308;2023-09-19T06:25:59;3.10;;;2.07;;
15633;SDS011;14654;48.898;8.308;2023-09-19T06:28:24;4.57;;;2.20;;
15633;SDS011;14654;48.898;8.308;2023-09-19T06:30:52;3.07;;;2.10;;
15633;SDS011;14654;48.898;8.308;2023-09-19T06:33:18;2.30;;;2.10;;
15633;SDS011;14654;48.898;8.308;2023-09-19T06:35:46;3.93;;;1.83;;
15633;SDS011;14654;48.898;8.308;2023-09-19T06:38:12;4.70;;;2.10;;
15633;SDS011;14654;48.898;8.308;2023-09-19T06:40:38;2.93;;;2.10;;
15633;SDS011;14654;48.898;8.308;2023-09-19T06:43:04;3.33;;;1.90;;
15633;SDS011;14654;48.898;8.308;2023-09-19T06:45:30;3.93;;;2.30;;
15633;SDS011;14654;48.898;8.308;2023-09-19T06:47:56;2.57;;;1.90;;
15633;SDS011;14654;48.898;8.308;2023-09-19T06:50:22;4.17;;;2.33;;
15633;SDS011;14654;48.898;8.308;2023-09-19T06:52:49;3.30;;;2.67;;
15633;SDS011;14654;48.898;8.308;2023-09-19T06:55:19;4.13;;;3.00;;
15633;SDS011;14654;48.898;8.308;2023-09-19T06:57:46;5.70;;;3.60;;
15633;SDS011;14654;48.898;8.308;2023-09-19T07:00:12;4.20;;;2.57;;
15633;SDS011;14654;48.898;8.308;2023-09-19T07:02:59;3.87;;;2.30;;
15633;SDS011;14654;48.898;8.308;2023-09-19T07:05:35;3.33;;;2.40;;
15633;SDS011;14654;48.898;8.308;2023-09-19T07:08:08;4.57;;;2.30;;
15633;SDS011;14654;48.898;8.308;2023-09-19T07:10:37;3.53;;;1.93;;
15633;SDS011;14654;48.898;8.308;2023-09-19T07:13:06;2.93;;;2.13;;
15633;SDS011;14654;48.898;8.308;2023-09-19T07:15:35;3.10;;;2.30;;
15633;SDS011;14654;48.898;8.308;2023-09-19T07:18:04;4.57;;;1.80;;
15633;SDS011;14654;48.898;8.308;2023-09-19T07:20:31;2.43;;;1.77;;
15633;SDS011;14654;48.898;8.308;2023-09-19T07:22:58;3.27;;;1.80;;
15633;SDS011;14654;48.898;8.308;2023-09-19T07:25:26;3.73;;;1.90;;
15633;SDS011;14654;48.898;8.308;2023-09-19T07:27:54;1.97;;;1.50;;
15633;SDS011;14654;48.898;8.308;2023-09-19T07:30:20;2.80;;;1.77;;
15633;SDS011;14654;48.898;8.308;2023-09-19T07:32:46;2.93;;;1.60;;
15633;SDS011;14654;48.898;8.308;2023-09-19T07:35:11;3.37;;;2.73;;
15633;SDS011;14654;48.898;8.308;2023-09-19T07:37:37;4.83;;;2.57;;
15633;SDS011;14654;48.898;8.308;2023-09-19T07:40:03;4.97;;;2.47;;
15633;SDS011;14654;48.898;8.308;2023-09-19T07:42:37;2.47;;;1.53;;
15633;SDS011;14654;48.898;8.308;2023-09-19T07:45:06;2.57;;;1.60;;
15633;SDS011;14654;48.898;8.308;2023-09-19T07:47:32;2.47;;;1.57;;
15633;SDS011;14654;48.898;8.308;2023-09-19T07:49:58;3.60;;;1.50;;
15633;SDS011;14654;48.898;8.308;2023-09-19T07:52:26;1.73;;;1.20;;
15633;SDS011;14654;48.898;8.308;2023-09-19T07:54:52;2.40;;;1.40;;
15633;SDS011;14654;48.898;8.308;2023-09-19T07:57:18;2.27;;;0.97;;
15633;SDS011;14654;48.898;8.308;2023-09-19T07:59:44;2.47;;;1.10;;
15633;SDS011;14654;48.898;8.308;2023-09-19T08:02:10;1.40;;;1.13;;
15633;SDS011;14654;48.898;8.308;2023-09-19T08:04:41;2.83;;;1.20;;
15633;SDS011;14654;48.898;8.308;2023-09-19T08:07:07;1.77;;;1.00;;
15633;SDS011;14654;48.898;8.308;2023-09-19T08:09:33;1.87;;;1.10;;
15633;SDS011;14654;48.898;8.308;2023-09-19T08:11:59;1.57;;;1.00;;
15633;SDS011;14654;48.898;8.308;2023-09-19T08:14:27;2.50;;;1.40;;
15633;SDS011;14654;48.898;8.308;2023-09-19T08:16:56;1.57;;;1.13;;
15633;SDS011;14654;48.898;8.308;2023-09-19T08:19:22;1.93;;;1.30;;
15633;SDS011;14654;48.898;8.308;2023-09-19T08:21:48;2.97;;;1.17;;
15633;SDS011;14654;48.898;8.308;2023-09-19T08:24:13;3.20;;;1.23;;
15633;SDS011;14654;48.898;8.308;2023-09-19T08:26:39;5.63;;;1.47;;
15633;SDS011;14654;48.898;8.308;2023-09-19T08:29:05;2.67;;;1.67;;
15633;SDS011;14654;48.898;8.308;2023-09-19T08:31:31;3.73;;;1.27;;
15633;SDS011;14654;48.898;8.308;2023-09-19T08:33:58;3.63;;;1.20;;
15633;SDS011;14654;48.898;8.308;2023-09-19T08:36:24;3.67;;;1.60;;
15633;SDS011;14654;48.898;8.308;2023-09-19T08:38:50;2.20;;;1.10;;
15633;SDS011;14654;48.898;8.308;2023-09-19T08:41:16;2.30;;;1.50;;
15633;SDS011;14654;48.898;8.308;2023-09-19T08:43:42;1.40;;;1.20;;
15633;SDS011;14654;48.898;8.308;2023-09-19T08:46:11;1.63;;;1.40;;
15633;SDS011;14654;48.898;8.308;2023-09-19T08:48:45;3.00;;;1.40;;
15633;SDS011;14654;48.898;8.308;2023-09-19T08:51:27;2.30;;;1.33;;
15633;SDS011;14654;48.898;8.308;2023-09-19T08:54:02;1.63;;;1.07;;
15633;SDS011;14654;48.898;8.308;2023-09-19T08:56:31;1.93;;;1.07;;
15633;SDS011;14654;48.898;8.308;2023-09-19T08:59:02;1.57;;;1.00;;
15633;SDS011;14654;48.898;8.308;2023-09-19T09:01:29;1.70;;;1.10;;
15633;SDS011;14654;48.898;8.308;2023-09-19T09:03:57;1.57;;;1.10;;
15633;SDS011;14654;48.898;8.308;2023-09-19T09:06:23;8.73;;;1.43;;
15633;SDS011;14654;48.898;8.308;2023-09-19T09:08:52;2.77;;;1.10;;
15633;SDS011;14654;48.898;8.308;2023-09-19T09:11:19;1.70;;;0.90;;
15633;SDS011;14654;48.898;8.308;2023-09-19T09:13:46;1.10;;;0.80;;
15633;SDS011;14654;48.898;8.308;2023-09-19T09:16:12;1.40;;;0.90;;
15633;SDS011;14654;48.898;8.308;2023-09-19T09:18:42;2.20;;;1.13;;
15633;SDS011;14654;48.898;8.308;2023-09-19T09:21:09;2.00;;;1.00;;
15633;SDS011;14654;48.898;8.308;2023-09-19T09:23:34;1.57;;;1.00;;
15633;SDS011;14654;48.898;8.308;2023-09-19T09:26:00;2.30;;;0.83;;
15633;SDS011;14654;48.898;8.308;2023-09-19T09:28:28;1.00;;;0.87;;
15633;SDS011;14654;48.898;8.308;2023-09-19T09:30:55;2.03;;;1.20;;
15633;SDS011;14654;48.898;8.308;2023-09-19T09:33:23;3.77;;;1.20;;
15633;SDS011;14654;48.898;8.308;2023-09-19T09:35:53;2.20;;;1.10;;
15633;SDS011;14654;48.898;8.308;2023-09-19T09:38:28;2.33;;;1.20;;
15633;SDS011;14654;48.898;8.308;2023-09-19T09:41:10;1.83;;;0.93;;
15633;SDS011;14654;48.898;8.308;2023-09-19T09:43:40;1.53;;;1.00;;
15633;SDS011;14654;48.898;8.308;2023-09-19T09:48:46;1.33;;;1.07;;
15633;SDS011;14654;48.898;8.308;2023-09-19T09:51:32;1.87;;;0.90;;
15633;SDS011;14654;48.898;8.308;2023-09-19T09:54:17;1.97;;;1.10;;
15633;SDS011;14654;48.898;8.308;2023-09-19T10:02:11;1.63;;;0.90;;
15633;SDS011;14654;48.898;8.308;2023-09-19T10:04:38;1.40;;;0.80;;
15633;SDS011;14654;48.898;8.308;2023-09-19T10:07:29;1.50;;;0.90;;
15633;SDS011;14654;48.898;8.308;2023-09-19T10:10:03;2.10;;;1.00;;
15633;SDS011;14654;48.898;8.308;2023-09-19T10:12:44;2.23;;;1.10;;
15633;SDS011;14654;48.898;8.308;2023-09-19T10:15:12;2.13;;;1.20;;
15633;SDS011;14654;48.898;8.308;2023-09-19T10:17:41;2.10;;;1.23;;
15633;SDS011;14654;48.898;8.308;2023-09-19T10:20:09;1.60;;;1.10;;
15633;SDS011;14654;48.898;8.308;2023-09-19T10:23:09;1.40;;;1.00;;
15633;SDS011;14654;48.898;8.308;2023-09-19T10:25:38;2.43;;;1.37;;
15633;SDS011;14654;48.898;8.308;2023-09-19T10:28:08;3.00;;;1.60;;
15633;SDS011;14654;48.898;8.308;2023-09-19T10:30:45;3.03;;;1.23;;
15633;SDS011;14654;48.898;8.308;2023-09-19T10:33:13;3.50;;;1.27;;
15633;SDS011;14654;48.898;8.308;2023-09-19T10:35:42;1.30;;;1.00;;
15633;SDS011;14654;48.898;8.308;2023-09-19T10:38:13;2.80;;;1.30;;
15633;SDS011;14654;48.898;8.308;2023-09-19T10:40:42;2.33;;;1.10;;
15633;SDS011;14654;48.898;8.308;2023-09-19T10:43:17;2.30;;;1.10;;
15633;SDS011;14654;48.898;8.308;2023-09-19T10:45:44;2.23;;;1.30;;
15633;SDS011;14654;48.898;8.308;2023-09-19T10:48:11;2.20;;;1.30;;
15633;SDS011;14654;48.898;8.308;2023-09-19T10:50:42;2.50;;;1.40;;
15633;SDS011;14654;48.898;8.308;2023-09-19T10:53:11;1.77;;;1.07;;
15633;SDS011;14654;48.898;8.308;2023-09-19T10:55:38;1.87;;;1.10;;
15633;SDS011;14654;48.898;8.308;2023-09-19T10:58:05;1.77;;;1.30;;
15633;SDS011;14654;48.898;8.308;2023-09-19T11:00:50;2.27;;;1.33;;
15633;SDS011;14654;48.898;8.308;2023-09-19T11:06:03;3.00;;;1.30;;
15633;SDS011;14654;48.898;8.308;2023-09-19T11:11:58;2.23;;;1.20;;
15633;SDS011;14654;48.898;8.308;2023-09-19T11:25:42;2.80;;;1.40;;
15633;SDS011;14654;48.898;8.308;2023-09-19T11:28:27;3.00;;;1.50;;
15633;SDS011;14654;48.898;8.308;2023-09-19T11:30:53;1.40;;;1.07;;
15633;SDS011;14654;48.898;8.308;2023-09-19T11:46:23;1.73;;;1.17;;
15633;SDS011;14654;48.898;8.308;2023-09-19T11:48:50;1.27;;;1.10;;
15633;SDS011;14654;48.898;8.308;2023-09-19T11:51:21;2.10;;;1.30;;
15633;SDS011;14654;48.898;8.308;2023-09-19T11:53:51;1.73;;;1.40;;
15633;SDS011;14654;48.898;8.308;2023-09-19T11:56:18;1.73;;;1.03;;
15633;SDS011;14654;48.898;8.308;2023-09-19T11:58:50;2.87;;;1.23;;
15633;SDS011;14654;48.898;8.308;2023-09-19T12:01:31;1.73;;;1.30;;
15633;SDS011;14654;48.898;8.308;2023-09-19T12:03:59;2.67;;;1.13;;
15633;SDS011;14654;48.898;8.308;2023-09-19T12:06:25;1.73;;;1.00;;
15633;SDS011;14654;48.898;8.308;2023-09-19T12:08:52;1.70;;;1.13;;
15633;SDS011;14654;48.898;8.308;2023-09-19T12:11:19;2.37;;;1.17;;
15633;SDS011;14654;48.898;8.308;2023-09-19T12:13:47;2.00;;;1.07;;
15633;SDS011;14654;48.898;8.308;2023-09-19T12:18:46;2.93;;;1.10;;
15633;SDS011;14654;48.898;8.308;2023-09-19T12:26:41;1.80;;;1.20;;
15633;SDS011;14654;48.898;8.308;2023-09-19T12:29:16;2.10;;;1.30;;
15633;SDS011;14654;48.898;8.308;2023-09-19T12:31:49;3.13;;;1.67;;
15633;SDS011;14654;48.898;8.308;2023-09-19T12:34:28;2.50;;;1.27;;
15633;SDS011;14654;48.898;8.308;2023-09-19T12:37:13;2.17;;;1.23;;
15633;SDS011;14654;48.898;8.308;2023-09-19T12:39:52;3.43;;;1.23;;
15633;SDS011;14654;48.898;8.308;2023-09-19T12:42:22;12.50;;;2.57;;
15633;SDS011;14654;48.898;8.308;2023-09-19T12:44:49;1.47;;;1.10;;
15633;SDS011;14654;48.898;8.308;2023-09-19T12:47:21;2.07;;;1.20;;
15633;SDS011;14654;48.898;8.308;2023-09-19T12:52:55;2.83;;;1.00;;
15633;SDS011;14654;48.898;8.308;2023-09-19T13:00:36;2.00;;;1.40;;
15633;SDS011;14654;48.898;8.308;2023-09-19T13:03:13;2.13;;;0.90;;
15633;SDS011;14654;48.898;8.308;2023-09-19T13:08:29;2.33;;;1.20;;
15633;SDS011;14654;48.898;8.308;2023-09-19T13:13:25;5.83;;;1.40;;
15633;SDS011;14654;48.898;8.308;2023-09-19T13:15:53;7.20;;;2.03;;
15633;SDS011;14654;48.898;8.308;2023-09-19T13:18:19;1.83;;;1.30;;
15633;SDS011;14654;48.898;8.308;2023-09-19T13:21:04;3.47;;;1.50;;
15633;SDS011;14654;48.898;8.308;2023-09-19T13:23:37;1.20;;;0.80;;
15633;SDS011;14654;48.898;8.308;2023-09-19T13:26:03;3.03;;;1.33;;
15633;SDS011;14654;48.898;8.308;2023-09-19T13:28:31;3.83;;;1.20;;
15633;SDS011;14654;48.898;8.308;2023-09-19T13:30:56;1.60;;;1.03;;
15633;SDS011;14654;48.898;8.308;2023-09-19T13:33:22;2.00;;;1.07;;
15633;SDS011;14654;48.898;8.308;2023-09-19T13:35:47;2.03;;;0.90;;
15633;SDS011;14654;48.898;8.308;2023-09-19T13:38:13;1.30;;;1.07;;
15633;SDS011;14654;48.898;8.308;2023-09-19T13:40:39;2.70;;;0.90;;
15633;SDS011;14654;48.898;8.308;2023-09-19T13:43:06;1.97;;;1.10;;
15633;SDS011;14654;48.898;8.308;2023-09-19T13:45:33;1.33;;;0.90;;
15633;SDS011;14654;48.898;8.308;2023-09-19T13:47:59;2.27;;;0.90;;
15633;SDS011;14654;48.898;8.308;2023-09-19T13:50:24;1.97;;;0.80;;
15633;SDS011;14654;48.898;8.308;2023-09-19T13:52:50;2.77;;;0.73;;
15633;SDS011;14654;48.898;8.308;2023-09-19T13:55:17;1.93;;;0.87;;
15633;SDS011;14654;48.898;8.308;2023-09-19T13:57:48;2.03;;;0.90;;
15633;SDS011;14654;48.898;8.308;2023-09-19T14:00:21;1.33;;;0.97;;
15633;SDS011;14654;48.898;8.308;2023-09-19T14:02:47;1.30;;;0.90;;
15633;SDS011;14654;48.898;8.308;2023-09-19T14:05:14;1.47;;;0.80;;
15633;SDS011;14654;48.898;8.308;2023-09-19T14:07:41;1.87;;;0.73;;
15633;SDS011;14654;48.898;8.308;2023-09-19T14:10:08;1.10;;;0.77;;
15633;SDS011;14654;48.898;8.308;2023-09-19T14:12:35;1.60;;;0.93;;
15633;SDS011;14654;48.898;8.308;2023-09-19T14:15:02;2.53;;;1.17;;
15633;SDS011;14654;48.898;8.308;2023-09-19T14:17:28;1.67;;;0.90;;
15633;SDS011;14654;48.898;8.308;2023-09-19T14:19:53;1.10;;;0.80;;
15633;SDS011;14654;48.898;8.308;2023-09-19T14:22:18;1.67;;;0.90;;
15633;SDS011;14654;48.898;8.308;2023-09-19T14:24:44;1.53;;;0.83;;
15633;SDS011;14654;48.898;8.308;2023-09-19T14:27:10;1.67;;;0.70;;
15633;SDS011;14654;48.898;8.308;2023-09-19T14:29:36;1.37;;;0.97;;
15633;SDS011;14654;48.898;8.308;2023-09-19T14:32:01;1.60;;;0.80;;
15633;SDS011;14654;48.898;8.308;2023-09-19T14:34:27;0.60;;;0.57;;
15633;SDS011;14654;48.898;8.308;2023-09-19T14:36:52;2.73;;;1.17;;
15633;SDS011;14654;48.898;8.308;2023-09-19T14:39:19;2.03;;;0.80;;
15633;SDS011;14654;48.898;8.308;2023-09-19T14:41:44;1.17;;;0.80;;
15633;SDS011;14654;48.898;8.308;2023-09-19T14:44:10;2.47;;;0.90;;
15633;SDS011;14654;48.898;8.308;2023-09-19T14:46:36;1.00;;;0.80;;
15633;SDS011;14654;48.898;8.308;2023-09-19T14:49:01;1.50;;;1.00;;
15633;SDS011;14654;48.898;8.308;2023-09-19T14:51:29;2.00;;;1.00;;
15633;SDS011;14654;48.898;8.308;2023-09-19T14:53:55;1.23;;;0.80;;
15633;SDS011;14654;48.898;8.308;2023-09-19T14:56:21;0.80;;;0.70;;
15633;SDS011;14654;48.898;8.308;2023-09-19T14:58:48;0.83;;;0.80;;
15633;SDS011;14654;48.898;8.308;2023-09-19T15:01:14;0.80;;;0.80;;
15633;SDS011;14654;48.898;8.308;2023-09-19T15:03:40;1.37;;;1.00;;
15633;SDS011;14654;48.898;8.308;2023-09-19T15:06:08;1.20;;;0.80;;
15633;SDS011;14654;48.898;8.308;2023-09-19T15:08:35;1.30;;;0.80;;
15633;SDS011;14654;48.898;8.308;2023-09-19T15:11:03;2.10;;;0.90;;
15633;SDS011;14654;48.898;8.308;2023-09-19T15:13:30;2.43;;;0.80;;
15633;SDS011;14654;48.898;8.308;2023-09-19T15:15:59;2.43;;;0.80;;
15633;SDS011;14654;48.898;8.308;2023-09-19T15:18:27;1.17;;;0.77;;
15633;SDS011;14654;48.898;8.308;2023-09-19T15:20:53;1.87;;;1.20;;
15633;SDS011;14654;48.898;8.308;2023-09-19T15:23:19;2.90;;;1.10;;
15633;SDS011;14654;48.898;8.308;2023-09-19T15:25:50;2.17;;;1.20;;
15633;SDS011;14654;48.898;8.308;2023-09-19T15:28:16;2.57;;;1.20;;
15633;SDS011;14654;48.898;8.308;2023-09-19T15:30:43;1.57;;;0.93;;
15633;SDS011;14654;48.898;8.308;2023-09-19T15:33:09;1.43;;;1.00;;
15633;SDS011;14654;48.898;8.308;2023-09-19T15:35:34;1.47;;;0.97;;
15633;SDS011;14654;48.898;8.308;2023-09-19T15:38:02;1.13;;;0.90;;
15633;SDS011;14654;48.898;8.308;2023-09-19T15:40:28;1.13;;;0.80;;
15633;SDS011;14654;48.898;8.308;2023-09-19T15:42:54;1.77;;;1.00;;
15633;SDS011;14654;48.898;8.308;2023-09-19T15:45:21;1.70;;;0.80;;
15633;SDS011;14654;48.898;8.308;2023-09-19T15:47:46;0.80;;;0.70;;
15633;SDS011;14654;48.898;8.308;2023-09-19T15:50:12;2.13;;;0.90;;
15633;SDS011;14654;48.898;8.308;2023-09-19T15:52:40;1.20;;;0.73;;
15633;SDS011;14654;48.898;8.308;2023-09-19T15:55:07;1.20;;;1.00;;
15633;SDS011;14654;48.898;8.308;2023-09-19T15:57:34;1.40;;;1.00;;
15633;SDS011;14654;48.898;8.308;2023-09-19T16:00:01;1.53;;;1.13;;
15633;SDS011;14654;48.898;8.308;2023-09-19T16:02:29;1.27;;;0.80;;
15633;SDS011;14654;48.898;8.308;2023-09-19T16:04:55;1.50;;;0.60;;
15633;SDS011;14654;48.898;8.308;2023-09-19T16:07:20;1.80;;;1.00;;